Time;durP1;ratioP1;P1;durP2;ratioP2;P2;SDS_P1;SDS_P2;PMS_P1;PMS_P2;Temp;Humidity;BMP_temperature;BMP_pressure;BME280_temperature;BME280_humidity;BME280_pressure;Samples;Min_cycle;Max_cycle;Signal;HPM_P1;HPM_P2
2022/04/12 00:01:01;;;;;;;6.38;3.30;;;;;;;;;;4936624;29;20032;-69
2022/04/12 00:03:27;;;;;;;6.32;3.20;;;;;;;;;;4940184;29;20040;-68
2022/04/12 00:05:53;;;;;;;5.40;3.17;;;;;;;;;;4945078;29;20062;-69
2022/04/12 00:08:19;;;;;;;4.05;2.53;;;;;;;;;;4944128;29;20039;-69
2022/04/12 00:10:45;;;;;;;6.43;3.03;;;;;;;;;;4939154;29;20028;-69
2022/04/12 00:13:14;;;;;;;4.45;2.80;;;;;;;;;;4942618;29;20037;-70
2022/04/12 00:15:39;;;;;;;5.47;2.70;;;;;;;;;;4932925;29;20035;-69
2022/04/12 00:20:49;;;;;;;3.03;2.35;;;;;;;;;;4938874;29;20078;-69
2022/04/12 00:23:15;;;;;;;4.53;2.58;;;;;;;;;;4937638;29;20040;-70
2022/04/12 00:25:44;;;;;;;6.55;2.63;;;;;;;;;;4940607;29;20094;-70
2022/04/12 00:28:11;;;;;;;5.75;2.78;;;;;;;;;;4941320;29;20047;-69
2022/04/12 00:30:36;;;;;;;4.82;2.78;;;;;;;;;;4937024;29;20324;-67
2022/04/12 00:33:02;;;;;;;4.93;2.60;;;;;;;;;;4932983;29;20040;-69
2022/04/12 00:35:27;;;;;;;6.05;2.80;;;;;;;;;;4934330;29;20123;-68
2022/04/12 00:37:54;;;;;;;6.18;2.38;;;;;;;;;;4936990;29;20035;-68
2022/04/12 00:40:24;;;;;;;4.57;2.38;;;;;;;;;;4927324;29;20271;-69
2022/04/12 00:42:50;;;;;;;4.47;2.40;;;;;;;;;;4934524;29;20039;-68
2022/04/12 00:45:15;;;;;;;7.32;2.80;;;;;;;;;;4931430;29;20237;-70
2022/04/12 00:47:41;;;;;;;3.58;2.40;;;;;;;;;;4935569;29;20108;-69
2022/04/12 00:50:09;;;;;;;5.97;2.17;;;;;;;;;;4937737;29;20150;-70
2022/04/12 00:52:37;;;;;;;4.57;2.22;;;;;;;;;;4934907;29;20036;-69
2022/04/12 00:55:06;;;;;;;5.30;2.50;;;;;;;;;;4933694;29;20074;-69
2022/04/12 00:57:32;;;;;;;5.78;2.40;;;;;;;;;;4947669;29;20031;-68
2022/04/12 01:00:00;;;;;;;4.95;2.50;;;;;;;;;;4930062;29;20060;-68
2022/04/12 01:02:26;;;;;;;3.97;2.20;;;;;;;;;;4933899;29;20043;-70
2022/04/12 01:04:52;;;;;;;3.55;2.20;;;;;;;;;;4937205;29;20245;-68
2022/04/12 01:07:18;;;;;;;3.83;2.20;;;;;;;;;;4935821;29;20040;-70
2022/04/12 01:09:44;;;;;;;3.08;2.42;;;;;;;;;;4932730;29;20124;-69
2022/04/12 01:12:11;;;;;;;3.70;2.40;;;;;;;;;;4936742;29;20272;-68
2022/04/12 01:14:37;;;;;;;3.97;2.17;;;;;;;;;;4936136;29;20027;-69
2022/04/12 01:17:05;;;;;;;3.60;2.10;;;;;;;;;;4935454;29;20805;-67
2022/04/12 01:19:30;;;;;;;3.00;2.05;;;;;;;;;;4935700;29;20051;-66
2022/04/12 01:22:21;;;;;;;5.80;2.10;;;;;;;;;;4932147;29;20245;-70
2022/04/12 01:24:47;;;;;;;3.35;2.00;;;;;;;;;;4921953;29;20043;-68
2022/04/12 01:27:12;;;;;;;4.35;2.42;;;;;;;;;;4931350;29;20031;-69
2022/04/12 01:29:38;;;;;;;3.67;2.13;;;;;;;;;;4933907;29;20232;-69
2022/04/12 01:32:07;;;;;;;4.68;2.17;;;;;;;;;;4936353;29;20024;-70
2022/04/12 01:34:35;;;;;;;4.57;2.40;;;;;;;;;;4933873;29;20036;-69
2022/04/12 01:37:02;;;;;;;3.60;2.05;;;;;;;;;;4932348;29;20024;-68
2022/04/12 01:39:28;;;;;;;4.57;2.22;;;;;;;;;;4927772;29;20142;-69
2022/04/12 01:41:53;;;;;;;3.30;2.40;;;;;;;;;;4936382;29;20032;-69
2022/04/12 01:44:19;;;;;;;4.00;2.40;;;;;;;;;;4932262;29;20040;-70
2022/04/12 01:46:44;;;;;;;4.95;2.20;;;;;;;;;;4931084;29;20039;-69
2022/04/12 01:49:09;;;;;;;4.97;2.30;;;;;;;;;;4931937;29;20029;-70
2022/04/12 01:51:35;;;;;;;5.07;2.45;;;;;;;;;;4932466;29;20098;-69
2022/04/12 01:54:00;;;;;;;4.00;1.90;;;;;;;;;;4931740;29;20028;-69
2022/04/12 01:56:26;;;;;;;4.50;2.05;;;;;;;;;;4934472;29;20047;-68
2022/04/12 01:58:51;;;;;;;5.03;2.00;;;;;;;;;;4935722;29;20031;-68
2022/04/12 02:01:16;;;;;;;5.75;2.30;;;;;;;;;;4923200;29;20020;-69
2022/04/12 02:03:42;;;;;;;3.35;2.00;;;;;;;;;;4934832;29;20070;-69
2022/04/12 02:06:07;;;;;;;3.35;1.80;;;;;;;;;;4935291;29;20084;-70
2022/04/12 02:08:35;;;;;;;2.80;2.05;;;;;;;;;;4929293;29;20036;-69
2022/04/12 02:11:00;;;;;;;5.82;2.20;;;;;;;;;;4932351;29;20099;-69
2022/04/12 02:13:25;;;;;;;2.05;1.80;;;;;;;;;;4934979;29;20039;-69
2022/04/12 02:15:51;;;;;;;3.92;2.28;;;;;;;;;;4930549;29;20526;-68
2022/04/12 02:18:16;;;;;;;3.83;2.00;;;;;;;;;;4937033;29;20032;-69
2022/04/12 02:20:41;;;;;;;3.75;1.90;;;;;;;;;;4929917;29;20068;-69
2022/04/12 02:23:07;;;;;;;5.93;1.75;;;;;;;;;;4934240;29;20047;-68
2022/04/12 02:25:32;;;;;;;2.45;1.95;;;;;;;;;;4930686;29;20367;-69
2022/04/12 02:27:57;;;;;;;3.80;2.20;;;;;;;;;;4933726;29;20031;-69
2022/04/12 02:30:23;;;;;;;2.67;2.00;;;;;;;;;;4926487;29;20224;-68
2022/04/12 02:32:48;;;;;;;2.65;2.22;;;;;;;;;;4928055;29;20062;-68
2022/04/12 02:35:14;;;;;;;2.53;1.90;;;;;;;;;;4930100;29;20035;-69
2022/04/12 02:37:39;;;;;;;5.80;2.28;;;;;;;;;;4933003;29;20043;-67
2022/04/12 02:40:05;;;;;;;5.93;2.47;;;;;;;;;;4931059;29;20057;-69
2022/04/12 02:42:31;;;;;;;3.40;1.92;;;;;;;;;;4933064;29;20318;-67
2022/04/12 02:44:56;;;;;;;3.50;1.90;;;;;;;;;;4934717;29;20027;-68
2022/04/12 02:47:25;;;;;;;4.30;2.00;;;;;;;;;;4927774;29;20032;-68
2022/04/12 02:49:52;;;;;;;3.47;2.10;;;;;;;;;;4929948;29;20032;-67
2022/04/12 02:52:18;;;;;;;2.92;1.85;;;;;;;;;;4929366;29;20116;-69
2022/04/12 02:54:43;;;;;;;3.35;1.65;;;;;;;;;;4932338;29;20090;-68
2022/04/12 02:57:09;;;;;;;3.08;2.05;;;;;;;;;;4932946;29;20331;-69
2022/04/12 02:59:34;;;;;;;6.70;2.58;;;;;;;;;;4931193;29;20817;-69
2022/04/12 03:02:00;;;;;;;7.63;2.30;;;;;;;;;;4933047;29;20031;-69
2022/04/12 03:04:26;;;;;;;6.00;2.28;;;;;;;;;;4931053;29;20107;-69
2022/04/12 03:06:52;;;;;;;3.42;2.30;;;;;;;;;;4931074;29;20048;-68
2022/04/12 03:09:18;;;;;;;8.50;2.50;;;;;;;;;;4930512;29;20047;-68
2022/04/12 03:11:43;;;;;;;4.55;2.22;;;;;;;;;;4931107;29;20058;-67
2022/04/12 03:14:09;;;;;;;3.75;2.42;;;;;;;;;;4938590;29;20039;-67
2022/04/12 03:16:34;;;;;;;3.60;2.53;;;;;;;;;;4934304;29;20074;-69
2022/04/12 03:18:59;;;;;;;5.30;2.30;;;;;;;;;;4932191;29;20040;-68
2022/04/12 03:21:28;;;;;;;3.88;2.58;;;;;;;;;;4930095;29;20087;-67
2022/04/12 03:23:54;;;;;;;4.85;2.78;;;;;;;;;;4933166;29;20039;-68
2022/04/12 03:26:19;;;;;;;9.02;2.70;;;;;;;;;;4932068;29;20032;-68
2022/04/12 03:28:44;;;;;;;4.53;2.55;;;;;;;;;;4931330;29;20051;-68
2022/04/12 03:31:10;;;;;;;4.32;2.30;;;;;;;;;;4932697;29;20035;-68
2022/04/12 03:33:35;;;;;;;6.78;3.08;;;;;;;;;;4930640;29;20040;-68
2022/04/12 03:36:00;;;;;;;4.88;2.35;;;;;;;;;;4932636;29;20091;-67
2022/04/12 03:38:26;;;;;;;6.50;2.92;;;;;;;;;;4931301;29;20039;-68
2022/04/12 03:40:52;;;;;;;6.13;2.53;;;;;;;;;;4933640;29;20043;-69
2022/04/12 03:43:17;;;;;;;3.78;2.42;;;;;;;;;;4929595;29;20063;-69
2022/04/12 03:45:42;;;;;;;6.78;2.78;;;;;;;;;;4936932;29;20036;-69
2022/04/12 03:48:08;;;;;;;7.53;2.70;;;;;;;;;;4930706;29;20186;-69
2022/04/12 03:50:36;;;;;;;4.82;2.50;;;;;;;;;;4936444;29;20063;-68
2022/04/12 03:53:02;;;;;;;5.60;2.70;;;;;;;;;;4932922;29;20110;-68
2022/04/12 03:55:30;;;;;;;6.28;2.70;;;;;;;;;;4934060;29;20048;-68
2022/04/12 03:58:05;;;;;;;5.65;2.97;;;;;;;;;;4929803;29;20039;-69
2022/04/12 04:00:31;;;;;;;6.63;2.95;;;;;;;;;;4934921;29;20028;-66
2022/04/12 04:02:57;;;;;;;5.88;2.58;;;;;;;;;;4934770;29;20028;-68
2022/04/12 04:05:23;;;;;;;3.60;2.33;;;;;;;;;;4936929;29;20222;-69
2022/04/12 04:07:49;;;;;;;4.63;2.78;;;;;;;;;;4937082;29;20044;-68
2022/04/12 04:10:14;;;;;;;4.25;2.53;;;;;;;;;;4924088;29;20171;-68
2022/04/12 04:12:40;;;;;;;5.47;2.90;;;;;;;;;;4935387;29;20031;-68
2022/04/12 04:15:11;;;;;;;4.60;2.53;;;;;;;;;;4935504;29;20035;-70
2022/04/12 04:17:39;;;;;;;6.25;2.85;;;;;;;;;;4935076;29;20236;-69
2022/04/12 04:20:05;;;;;;;5.13;2.83;;;;;;;;;;4934817;29;20106;-67
2022/04/12 04:22:30;;;;;;;7.90;2.70;;;;;;;;;;4938443;29;20039;-69
2022/04/12 04:24:56;;;;;;;7.78;3.10;;;;;;;;;;4917094;29;20031;-69
2022/04/12 04:27:23;;;;;;;4.30;2.50;;;;;;;;;;4934042;29;20182;-70
2022/04/12 04:29:48;;;;;;;6.72;2.97;;;;;;;;;;4936544;29;20032;-69
2022/04/12 04:32:14;;;;;;;6.95;2.70;;;;;;;;;;4932897;29;20111;-70
2022/04/12 04:34:39;;;;;;;3.97;2.75;;;;;;;;;;4933004;29;20395;-68
2022/04/12 04:37:04;;;;;;;5.57;2.70;;;;;;;;;;4934210;29;20039;-67
2022/04/12 04:39:30;;;;;;;6.05;2.90;;;;;;;;;;4932477;29;20039;-69
2022/04/12 04:41:55;;;;;;;5.32;2.78;;;;;;;;;;4932475;29;20076;-68
2022/04/12 04:44:20;;;;;;;6.53;2.85;;;;;;;;;;4934379;29;20055;-68
2022/04/12 04:46:46;;;;;;;6.30;2.75;;;;;;;;;;4931994;29;20098;-69
2022/04/12 04:49:11;;;;;;;6.35;2.60;;;;;;;;;;4936642;29;20031;-71
2022/04/12 04:51:41;;;;;;;4.68;3.03;;;;;;;;;;4937220;29;20047;-65
2022/04/12 04:54:06;;;;;;;5.00;2.70;;;;;;;;;;4925115;29;20036;-67
2022/04/12 04:56:32;;;;;;;7.00;2.72;;;;;;;;;;4932745;29;20439;-68
2022/04/12 04:58:58;;;;;;;4.32;2.60;;;;;;;;;;4937381;29;20028;-68
2022/04/12 05:01:23;;;;;;;5.78;2.63;;;;;;;;;;4933029;29;20254;-68
2022/04/12 05:03:50;;;;;;;8.25;2.85;;;;;;;;;;4940474;29;20027;-69
2022/04/12 05:06:16;;;;;;;9.05;2.70;;;;;;;;;;4936924;29;20048;-68
2022/04/12 05:08:41;;;;;;;4.75;2.72;;;;;;;;;;4938783;29;20028;-68
2022/04/12 05:11:06;;;;;;;3.85;2.80;;;;;;;;;;4934507;29;20032;-69
2022/04/12 05:13:32;;;;;;;3.83;2.83;;;;;;;;;;4935360;29;20043;-70
2022/04/12 05:15:57;;;;;;;6.10;2.83;;;;;;;;;;4932033;29;20038;-70
2022/04/12 05:18:23;;;;;;;10.00;3.25;;;;;;;;;;4933166;29;20035;-70
2022/04/12 05:20:49;;;;;;;7.10;3.90;;;;;;;;;;4935221;29;20359;-69
2022/04/12 05:23:15;;;;;;;7.63;3.53;;;;;;;;;;4936312;29;20067;-69
2022/04/12 05:25:40;;;;;;;15.68;4.30;;;;;;;;;;4937781;29;20325;-69
2022/04/12 05:28:06;;;;;;;6.72;4.10;;;;;;;;;;4935838;29;20030;-67
2022/04/12 05:30:31;;;;;;;9.50;4.30;;;;;;;;;;4935609;29;20102;-69
2022/04/12 05:32:57;;;;;;;6.93;4.30;;;;;;;;;;4934145;29;20028;-68
2022/04/12 05:35:25;;;;;;;7.10;4.30;;;;;;;;;;4933859;29;20036;-67
2022/04/12 05:37:52;;;;;;;7.07;4.00;;;;;;;;;;4935347;29;20220;-67
2022/04/12 05:40:18;;;;;;;11.90;5.13;;;;;;;;;;4933547;29;20067;-71
2022/04/12 05:42:47;;;;;;;11.15;4.88;;;;;;;;;;4934003;29;20091;-71
2022/04/12 05:45:14;;;;;;;12.27;4.30;;;;;;;;;;4934458;29;20031;-69
2022/04/12 05:47:44;;;;;;;7.50;3.38;;;;;;;;;;4930170;29;20119;-69
2022/04/12 05:50:11;;;;;;;6.95;3.72;;;;;;;;;;4934153;29;20094;-69
2022/04/12 05:52:38;;;;;;;9.35;4.10;;;;;;;;;;4930183;29;20107;-68
2022/04/12 05:55:05;;;;;;;8.75;4.10;;;;;;;;;;4933872;29;20031;-70
2022/04/12 05:57:31;;;;;;;8.73;3.97;;;;;;;;;;4935428;29;20313;-69
2022/04/12 05:59:56;;;;;;;6.47;3.85;;;;;;;;;;4937009;29;20039;-68
2022/04/12 06:02:21;;;;;;;10.25;3.60;;;;;;;;;;4929208;29;20046;-69
2022/04/12 06:04:47;;;;;;;6.78;4.03;;;;;;;;;;4934138;29;20036;-68
2022/04/12 06:07:12;;;;;;;8.52;4.18;;;;;;;;;;4934383;29;20778;-70
2022/04/12 06:09:38;;;;;;;6.07;3.85;;;;;;;;;;4931834;29;20249;-58
2022/04/12 06:12:03;;;;;;;10.75;5.60;;;;;;;;;;4934594;29;20027;-53
2022/04/12 06:14:29;;;;;;;10.95;3.90;;;;;;;;;;4932697;29;20059;-52
2022/04/12 06:16:54;;;;;;;9.25;3.97;;;;;;;;;;4931942;29;20309;-57
2022/04/12 06:19:19;;;;;;;7.45;4.22;;;;;;;;;;4934584;29;20240;-54
2022/04/12 06:21:45;;;;;;;8.48;4.60;;;;;;;;;;4931313;29;20028;-56
2022/04/12 06:24:10;;;;;;;6.90;4.15;;;;;;;;;;4932110;29;20363;-54
2022/04/12 06:26:35;;;;;;;10.10;4.40;;;;;;;;;;4936088;29;20039;-55
2022/04/12 06:29:01;;;;;;;8.07;4.10;;;;;;;;;;4933373;29;20058;-57
2022/04/12 06:31:26;;;;;;;7.35;3.90;;;;;;;;;;4928590;29;20128;-57
2022/04/12 06:33:51;;;;;;;8.10;4.40;;;;;;;;;;4931148;29;20100;-54
2022/04/12 06:36:17;;;;;;;10.85;3.90;;;;;;;;;;4930739;29;20892;-56
2022/04/12 06:38:42;;;;;;;7.13;3.88;;;;;;;;;;4931974;29;20157;-57
2022/04/12 06:41:08;;;;;;;8.10;4.30;;;;;;;;;;4936245;29;20094;-56
2022/04/12 06:43:33;;;;;;;7.47;4.05;;;;;;;;;;4930016;29;20027;-57
2022/04/12 06:45:59;;;;;;;5.75;3.78;;;;;;;;;;4932750;29;20095;-61
2022/04/12 06:48:24;;;;;;;8.80;4.10;;;;;;;;;;4930809;29;20032;-58
2022/04/12 06:50:50;;;;;;;6.00;3.60;;;;;;;;;;4932613;29;20250;-57
2022/04/12 06:53:15;;;;;;;8.63;4.68;;;;;;;;;;4929252;29;20040;-55
2022/04/12 06:55:41;;;;;;;18.60;4.93;;;;;;;;;;4930920;29;20087;-55
2022/04/12 06:58:06;;;;;;;9.35;3.90;;;;;;;;;;4936006;29;20031;-54
2022/04/12 07:00:31;;;;;;;8.45;3.83;;;;;;;;;;4935124;29;20378;-57
2022/04/12 07:02:57;;;;;;;11.90;4.00;;;;;;;;;;4935307;29;20035;-58
2022/04/12 07:05:22;;;;;;;8.13;3.75;;;;;;;;;;4928986;29;20040;-56
2022/04/12 07:07:48;;;;;;;6.50;3.80;;;;;;;;;;4928279;29;20059;-57
2022/04/12 07:10:16;;;;;;;8.02;3.70;;;;;;;;;;4928180;29;20033;-57
2022/04/12 07:12:42;;;;;;;6.78;3.90;;;;;;;;;;4924933;29;20094;-54
2022/04/12 07:15:09;;;;;;;7.90;4.22;;;;;;;;;;4927009;29;20039;-56
2022/04/12 07:17:35;;;;;;;11.05;4.10;;;;;;;;;;4927238;29;20235;-56
2022/04/12 07:20:01;;;;;;;7.97;3.67;;;;;;;;;;4928923;29;20048;-52
2022/04/12 07:22:26;;;;;;;13.63;4.05;;;;;;;;;;4933642;29;20249;-58
2022/04/12 07:24:52;;;;;;;7.78;3.97;;;;;;;;;;4932671;29;20319;-57
2022/04/12 07:27:17;;;;;;;7.30;4.30;;;;;;;;;;4933049;29;21456;-55
2022/04/12 07:29:43;;;;;;;10.18;3.67;;;;;;;;;;4925540;29;20087;-55
2022/04/12 07:32:08;;;;;;;8.73;3.67;;;;;;;;;;4925616;29;20193;-53
2022/04/12 07:34:34;;;;;;;11.50;4.22;;;;;;;;;;4930736;29;20046;-53
2022/04/12 07:37:00;;;;;;;11.43;4.30;;;;;;;;;;4930330;29;20157;-52
2022/04/12 07:39:25;;;;;;;12.43;4.00;;;;;;;;;;4937060;29;20086;-50
2022/04/12 07:41:51;;;;;;;9.35;4.13;;;;;;;;;;4935315;29;20043;-53
2022/04/12 07:44:19;;;;;;;5.97;3.80;;;;;;;;;;4929307;29;20032;-55
2022/04/12 07:46:45;;;;;;;7.25;3.90;;;;;;;;;;4929875;29;20027;-52
2022/04/12 07:49:11;;;;;;;6.40;3.72;;;;;;;;;;4930012;29;20229;-54
2022/04/12 07:51:37;;;;;;;7.43;4.18;;;;;;;;;;4936528;29;20057;-57
2022/04/12 07:54:03;;;;;;;13.52;4.80;;;;;;;;;;4936702;29;20358;-57
2022/04/12 07:56:30;;;;;;;7.00;4.20;;;;;;;;;;4937589;29;20036;-55
2022/04/12 07:58:55;;;;;;;10.70;4.53;;;;;;;;;;4924308;29;20024;-59
2022/04/12 08:01:21;;;;;;;6.57;3.80;;;;;;;;;;4931994;29;20313;-57
2022/04/12 08:03:47;;;;;;;11.57;3.85;;;;;;;;;;4932499;29;20268;-56
2022/04/12 08:06:12;;;;;;;14.25;4.40;;;;;;;;;;4934926;29;20035;-56
2022/04/12 08:08:38;;;;;;;6.55;3.85;;;;;;;;;;4938447;29;20320;-57
2022/04/12 08:11:04;;;;;;;10.85;4.28;;;;;;;;;;4949690;29;20031;-57
2022/04/12 08:13:30;;;;;;;11.48;4.28;;;;;;;;;;4933075;29;20336;-56
2022/04/12 08:15:56;;;;;;;16.48;4.28;;;;;;;;;;4928419;29;20099;-56
2022/04/12 08:18:21;;;;;;;7.88;3.97;;;;;;;;;;4932300;29;20040;-56
2022/04/12 08:20:49;;;;;;;9.23;4.22;;;;;;;;;;4935258;29;20032;-56
2022/04/12 08:23:17;;;;;;;8.05;3.78;;;;;;;;;;4935003;29;20106;-59
2022/04/12 08:25:43;;;;;;;6.78;3.70;;;;;;;;;;4951856;29;20024;-56
2022/04/12 08:28:09;;;;;;;8.95;4.72;;;;;;;;;;4932024;29;20032;-56
2022/04/12 08:30:35;;;;;;;7.85;3.60;;;;;;;;;;4930592;29;20051;-57
2022/04/12 08:33:01;;;;;;;12.63;4.60;;;;;;;;;;4929045;29;20038;-59
2022/04/12 08:35:27;;;;;;;9.40;3.92;;;;;;;;;;4930497;29;20356;-55
2022/04/12 08:37:53;;;;;;;11.63;4.28;;;;;;;;;;4941659;29;20044;-53
2022/04/12 08:40:19;;;;;;;11.13;4.18;;;;;;;;;;4934053;29;20063;-56
2022/04/12 08:42:45;;;;;;;7.93;3.92;;;;;;;;;;4930484;29;20036;-61
2022/04/12 08:45:11;;;;;;;10.02;4.22;;;;;;;;;;4928233;29;20203;-55
2022/04/12 08:47:37;;;;;;;8.32;4.28;;;;;;;;;;4928441;29;20031;-57
2022/04/12 08:50:05;;;;;;;10.15;4.43;;;;;;;;;;4931261;29;20347;-53
2022/04/12 08:52:31;;;;;;;9.18;4.13;;;;;;;;;;4928986;29;20044;-55
2022/04/12 08:54:57;;;;;;;9.40;4.38;;;;;;;;;;4931462;29;20198;-54
2022/04/12 08:57:22;;;;;;;10.63;4.43;;;;;;;;;;4933417;29;20222;-55
2022/04/12 08:59:48;;;;;;;8.93;4.90;;;;;;;;;;4928447;29;20031;-55
2022/04/12 09:02:13;;;;;;;13.05;4.53;;;;;;;;;;4934498;29;20062;-56
2022/04/12 09:04:39;;;;;;;11.60;5.50;;;;;;;;;;4934330;29;20055;-53
2022/04/12 09:07:11;;;;;;;6.53;4.47;;;;;;;;;;4932795;29;20054;-58
2022/04/12 09:09:39;;;;;;;7.67;4.10;;;;;;;;;;4931214;29;20464;-53
2022/04/12 09:12:09;;;;;;;7.93;4.28;;;;;;;;;;4928937;29;20280;-57
2022/04/12 09:14:36;;;;;;;8.73;3.92;;;;;;;;;;4939371;29;20036;-57
2022/04/12 09:17:03;;;;;;;12.30;4.80;;;;;;;;;;4932732;29;20043;-56
2022/04/12 09:19:51;;;;;;;9.93;4.88;;;;;;;;;;4930449;29;20032;-56
2022/04/12 09:22:18;;;;;;;12.77;5.70;;;;;;;;;;4935979;29;20047;-55
2022/04/12 09:24:50;;;;;;;9.73;4.25;;;;;;;;;;4931561;29;20593;-57
2022/04/12 09:27:17;;;;;;;8.15;4.47;;;;;;;;;;4933685;29;20031;-58
2022/04/12 09:29:51;;;;;;;8.60;4.60;;;;;;;;;;4930540;29;20185;-54
2022/04/12 09:32:21;;;;;;;9.35;5.10;;;;;;;;;;4932019;29;20317;-57
2022/04/12 09:34:47;;;;;;;7.70;4.28;;;;;;;;;;4934954;29;20066;-55
2022/04/12 09:37:33;;;;;;;8.18;4.50;;;;;;;;;;4931996;29;20043;-56
2022/04/12 09:39:58;;;;;;;10.20;4.90;;;;;;;;;;4926075;29;20119;-58
2022/04/12 09:42:37;;;;;;;6.85;4.18;;;;;;;;;;4930734;28;20036;-56
2022/04/12 09:45:04;;;;;;;11.40;4.43;;;;;;;;;;4930353;29;20045;-55
2022/04/12 09:47:33;;;;;;;13.15;4.35;;;;;;;;;;4932187;29;20107;-56
2022/04/12 09:50:02;;;;;;;10.32;4.72;;;;;;;;;;4930464;29;20258;-57
2022/04/12 09:52:28;;;;;;;14.02;4.25;;;;;;;;;;4921963;29;20036;-56
2022/04/12 09:54:57;;;;;;;8.00;4.32;;;;;;;;;;4926959;29;20036;-56
2022/04/12 09:57:24;;;;;;;9.00;4.60;;;;;;;;;;4930965;29;20028;-55
2022/04/12 09:59:55;;;;;;;7.22;4.35;;;;;;;;;;4933791;29;20024;-54
2022/04/12 10:02:21;;;;;;;8.93;4.25;;;;;;;;;;4933577;29;20034;-55
2022/04/12 10:04:50;;;;;;;7.70;4.05;;;;;;;;;;4925027;29;20463;-58
2022/04/12 10:07:18;;;;;;;9.05;4.20;;;;;;;;;;4927772;29;20207;-60
2022/04/12 10:09:44;;;;;;;9.18;4.38;;;;;;;;;;4932949;29;20028;-57
2022/04/12 10:12:10;;;;;;;10.50;4.50;;;;;;;;;;4924098;29;20105;-57
2022/04/12 10:14:36;;;;;;;7.75;4.20;;;;;;;;;;4929603;29;20028;-56
2022/04/12 10:17:04;;;;;;;8.15;3.92;;;;;;;;;;4928574;29;20115;-56
2022/04/12 10:19:30;;;;;;;8.07;4.47;;;;;;;;;;4930647;29;20426;-59
2022/04/12 10:21:56;;;;;;;10.52;3.85;;;;;;;;;;4928786;29;20036;-56
2022/04/12 10:24:22;;;;;;;7.57;3.95;;;;;;;;;;4930726;29;20028;-59
2022/04/12 10:26:50;;;;;;;7.13;4.25;;;;;;;;;;4933277;29;20310;-57
2022/04/12 10:29:16;;;;;;;12.95;4.60;;;;;;;;;;4928005;29;20150;-56
2022/04/12 10:31:55;;;;;;;6.43;4.10;;;;;;;;;;4936354;29;20043;-59
2022/04/12 10:34:21;;;;;;;13.23;4.70;;;;;;;;;;4929435;29;20222;-56
2022/04/12 10:37:08;;;;;;;12.68;4.32;;;;;;;;;;4930649;29;20035;-57
2022/04/12 10:39:37;;;;;;;10.55;4.68;;;;;;;;;;4934914;29;20232;-55
2022/04/12 10:42:08;;;;;;;8.85;3.95;;;;;;;;;;4934329;29;20344;-56
2022/04/12 10:44:43;;;;;;;8.98;4.38;;;;;;;;;;4933055;29;20027;-55
2022/04/12 10:47:29;;;;;;;8.93;4.20;;;;;;;;;;4931542;29;20035;-56
2022/04/12 10:49:58;;;;;;;10.20;4.38;;;;;;;;;;4931708;29;20202;-56
2022/04/12 10:52:50;;;;;;;8.23;4.07;;;;;;;;;;4930288;29;20112;-57
2022/04/12 10:55:15;;;;;;;7.47;4.22;;;;;;;;;;4934391;29;20222;-57
2022/04/12 10:57:41;;;;;;;9.23;3.72;;;;;;;;;;4939307;29;20066;-54
2022/04/12 11:00:15;;;;;;;6.97;3.63;;;;;;;;;;4927314;29;20038;-55
2022/04/12 11:02:42;;;;;;;9.48;3.92;;;;;;;;;;4933789;29;20048;-54
2022/04/12 11:05:30;;;;;;;6.22;3.45;;;;;;;;;;4927531;29;20027;-60
2022/04/12 11:07:56;;;;;;;9.15;4.28;;;;;;;;;;4933832;29;20035;-56
2022/04/12 11:10:22;;;;;;;5.85;4.00;;;;;;;;;;4930764;29;20055;-53
2022/04/12 11:12:49;;;;;;;13.40;3.90;;;;;;;;;;4932477;29;20063;-55
2022/04/12 11:15:21;;;;;;;7.57;4.03;;;;;;;;;;4930530;29;20400;-55
2022/04/12 11:17:46;;;;;;;6.00;3.60;;;;;;;;;;4928202;29;20085;-57
2022/04/12 11:20:22;;;;;;;9.23;3.65;;;;;;;;;;4936123;29;20309;-59
2022/04/12 11:22:58;;;;;;;4.60;3.30;;;;;;;;;;4933833;29;20225;-62
2022/04/12 11:25:26;;;;;;;7.68;3.38;;;;;;;;;;4930177;29;20036;-59
2022/04/12 11:27:59;;;;;;;8.80;3.67;;;;;;;;;;4936007;29;20043;-57
2022/04/12 11:30:26;;;;;;;7.50;3.75;;;;;;;;;;4931073;29;20047;-59
2022/04/12 11:32:55;;;;;;;6.18;3.72;;;;;;;;;;4933280;29;20083;-61
2022/04/12 11:35:23;;;;;;;6.40;3.35;;;;;;;;;;4932252;29;20225;-60
2022/04/12 11:37:50;;;;;;;10.23;3.67;;;;;;;;;;4927496;29;20079;-60
2022/04/12 11:40:15;;;;;;;13.15;4.32;;;;;;;;;;4934006;29;20040;-57
2022/04/12 11:42:41;;;;;;;6.45;3.30;;;;;;;;;;4936568;29;20095;-58
2022/04/12 11:45:07;;;;;;;5.88;2.75;;;;;;;;;;4931044;29;20032;-60
2022/04/12 11:47:38;;;;;;;9.88;2.80;;;;;;;;;;4927742;29;20056;-57
2022/04/12 11:50:13;;;;;;;6.45;2.75;;;;;;;;;;4933911;29;20132;-59
2022/04/12 11:52:39;;;;;;;5.05;2.60;;;;;;;;;;4937230;29;20038;-58
2022/04/12 11:55:06;;;;;;;4.82;2.40;;;;;;;;;;4930615;29;20303;-61
2022/04/12 11:57:31;;;;;;;4.90;2.40;;;;;;;;;;4935673;29;20038;-60
2022/04/12 11:59:58;;;;;;;3.90;2.25;;;;;;;;;;4925325;29;20063;-61
2022/04/12 12:02:25;;;;;;;4.10;2.55;;;;;;;;;;4929939;29;20124;-60
2022/04/12 12:05:02;;;;;;;4.88;2.40;;;;;;;;;;4928161;29;20055;-58
2022/04/12 12:07:28;;;;;;;7.85;2.97;;;;;;;;;;4934575;29;20036;-58
2022/04/12 12:10:01;;;;;;;5.25;2.33;;;;;;;;;;4930554;29;20024;-61
2022/04/12 12:12:34;;;;;;;10.02;2.33;;;;;;;;;;4931751;29;20039;-60
2022/04/12 12:15:19;;;;;;;5.90;2.08;;;;;;;;;;4926995;29;20032;-60
2022/04/12 12:17:46;;;;;;;2.53;1.95;;;;;;;;;;4929766;29;20030;-61
2022/04/12 12:20:12;;;;;;;7.78;2.33;;;;;;;;;;4932021;29;20048;-60
2022/04/12 12:22:40;;;;;;;4.35;2.17;;;;;;;;;;4921142;29;20322;-61
2022/04/12 12:25:06;;;;;;;4.10;2.40;;;;;;;;;;4931284;29;20209;-62
2022/04/12 12:27:35;;;;;;;3.97;2.40;;;;;;;;;;4937152;29;20153;-59
2022/04/12 12:30:07;;;;;;;5.82;2.40;;;;;;;;;;4938834;29;20031;-60
2022/04/12 12:32:39;;;;;;;3.90;2.30;;;;;;;;;;4930849;29;20044;-60
2022/04/12 12:35:13;;;;;;;5.55;2.22;;;;;;;;;;4936506;29;20044;-57
2022/04/12 12:37:41;;;;;;;4.57;1.90;;;;;;;;;;4931169;29;20039;-58
2022/04/12 12:40:21;;;;;;;3.08;1.98;;;;;;;;;;4943095;29;20035;-65
2022/04/12 12:42:48;;;;;;;2.97;1.98;;;;;;;;;;4933642;29;20335;-67
2022/04/12 12:45:19;;;;;;;3.78;1.65;;;;;;;;;;4923504;29;20098;-60
2022/04/12 12:47:47;;;;;;;3.70;1.85;;;;;;;;;;4926433;29;20043;-60
2022/04/12 12:50:14;;;;;;;6.88;2.17;;;;;;;;;;4923807;29;20130;-61
2022/04/12 12:52:40;;;;;;;3.38;1.80;;;;;;;;;;4928540;29;20031;-61
2022/04/12 12:55:08;;;;;;;3.25;1.90;;;;;;;;;;4926010;29;20127;-61
2022/04/12 12:57:44;;;;;;;4.75;2.10;;;;;;;;;;4929255;29;20040;-61
2022/04/12 13:00:10;;;;;;;3.33;2.00;;;;;;;;;;4926993;29;20028;-65
2022/04/12 13:02:37;;;;;;;4.45;2.55;;;;;;;;;;4933521;29;20039;-60
2022/04/12 13:05:05;;;;;;;3.05;1.80;;;;;;;;;;4930453;29;20061;-61
2022/04/12 13:07:36;;;;;;;3.10;1.98;;;;;;;;;;4925334;29;20056;-61
2022/04/12 13:10:19;;;;;;;4.15;1.92;;;;;;;;;;4927915;29;20032;-61
2022/04/12 13:12:46;;;;;;;5.45;1.75;;;;;;;;;;4930924;29;20043;-61
2022/04/12 13:15:13;;;;;;;3.72;1.95;;;;;;;;;;4932575;29;20386;-60
2022/04/12 13:17:39;;;;;;;3.63;1.80;;;;;;;;;;4938091;29;20229;-60
2022/04/12 13:20:09;;;;;;;7.72;2.35;;;;;;;;;;4935588;29;20304;-59
2022/04/12 13:22:36;;;;;;;7.15;2.10;;;;;;;;;;4927074;29;20118;-61
2022/04/12 13:25:01;;;;;;;2.92;2.10;;;;;;;;;;4929029;29;20047;-60
2022/04/12 13:27:29;;;;;;;5.15;1.80;;;;;;;;;;4932294;29;20273;-60
2022/04/12 13:29:58;;;;;;;8.50;1.60;;;;;;;;;;4935686;29;20046;-61
2022/04/12 13:32:24;;;;;;;6.68;1.80;;;;;;;;;;4925004;29;20124;-60
2022/04/12 13:34:51;;;;;;;9.20;1.77;;;;;;;;;;4925827;29;20028;-62
2022/04/12 13:37:16;;;;;;;3.10;1.83;;;;;;;;;;4931156;29;20913;-60
2022/04/12 13:39:43;;;;;;;5.60;2.00;;;;;;;;;;4931882;29;20144;-62
2022/04/12 13:42:09;;;;;;;4.82;1.73;;;;;;;;;;4933767;29;20042;-60
2022/04/12 13:44:36;;;;;;;7.63;2.25;;;;;;;;;;4924129;29;20282;-60
2022/04/12 13:47:05;;;;;;;5.20;1.80;;;;;;;;;;4931096;29;20032;-60
2022/04/12 13:49:32;;;;;;;3.30;1.70;;;;;;;;;;4927185;29;20040;-60
2022/04/12 13:51:58;;;;;;;2.97;1.33;;;;;;;;;;4926335;29;20032;-58
2022/04/12 13:54:26;;;;;;;3.70;1.35;;;;;;;;;;4927046;29;20029;-58
2022/04/12 13:56:52;;;;;;;3.03;1.50;;;;;;;;;;4925813;29;20041;-58
2022/04/12 13:59:18;;;;;;;4.65;1.50;;;;;;;;;;4924123;29;20325;-60
2022/04/12 14:01:45;;;;;;;2.25;1.52;;;;;;;;;;4936078;29;20129;-61
2022/04/12 14:04:11;;;;;;;1.60;1.35;;;;;;;;;;4926974;29;20058;-60
2022/04/12 14:06:40;;;;;;;2.20;1.40;;;;;;;;;;4925880;29;20044;-60
2022/04/12 14:09:07;;;;;;;3.47;1.50;;;;;;;;;;4926218;29;20038;-61
2022/04/12 14:11:33;;;;;;;4.07;1.70;;;;;;;;;;4932212;29;20040;-60
2022/04/12 14:14:02;;;;;;;1.42;1.08;;;;;;;;;;4926833;29;20031;-61
2022/04/12 14:16:28;;;;;;;2.80;1.55;;;;;;;;;;4927632;29;20183;-62
2022/04/12 14:18:55;;;;;;;2.25;1.25;;;;;;;;;;4927409;29;20043;-59
2022/04/12 14:21:20;;;;;;;2.30;1.27;;;;;;;;;;4937050;29;20098;-61
2022/04/12 14:23:49;;;;;;;4.75;1.40;;;;;;;;;;4932747;29;20035;-61
2022/04/12 14:26:15;;;;;;;3.70;1.17;;;;;;;;;;4924746;29;20040;-58
2022/04/12 14:28:41;;;;;;;2.22;1.30;;;;;;;;;;4929074;29;20024;-60
2022/04/12 14:31:08;;;;;;;3.50;1.17;;;;;;;;;;4927399;29;20028;-60
2022/04/12 14:33:35;;;;;;;2.28;1.30;;;;;;;;;;4930744;29;20044;-60
2022/04/12 14:36:01;;;;;;;2.50;1.20;;;;;;;;;;4927198;29;20047;-60
2022/04/12 14:38:27;;;;;;;3.33;1.20;;;;;;;;;;4927012;29;20031;-60
2022/04/12 14:40:56;;;;;;;1.63;1.00;;;;;;;;;;4933926;29;20079;-62
2022/04/12 14:43:22;;;;;;;4.65;1.10;;;;;;;;;;4931899;29;20040;-60